sensor_id;sensor_type;location;lat;lon;timestamp;P1;durP1;ratioP1;P2;durP2;ratioP2
73747;SDS011;62056;52.130;5.428;2022-10-31T00:01:00;13.23;;;7.37;;
73747;SDS011;62056;52.130;5.428;2022-10-31T00:03:27;12.00;;;5.80;;
73747;SDS011;62056;52.130;5.428;2022-10-31T00:05:53;13.30;;;7.57;;
73747;SDS011;62056;52.130;5.428;2022-10-31T00:08:20;7.13;;;6.43;;
73747;SDS011;62056;52.130;5.428;2022-10-31T00:10:46;9.23;;;5.50;;
73747;SDS011;62056;52.130;5.428;2022-10-31T00:13:13;5.00;;;4.50;;
73747;SDS011;62056;52.130;5.428;2022-10-31T00:15:41;9.25;;;5.50;;
73747;SDS011;62056;52.130;5.428;2022-10-31T00:18:08;10.15;;;5.55;;
73747;SDS011;62056;52.130;5.428;2022-10-31T00:20:35;12.27;;;5.47;;
73747;SDS011;62056;52.130;5.428;2022-10-31T00:23:02;6.32;;;4.90;;
73747;SDS011;62056;52.130;5.428;2022-10-31T00:25:32;8.57;;;5.13;;
73747;SDS011;62056;52.130;5.428;2022-10-31T00:28:01;11.48;;;6.18;;
73747;SDS011;62056;52.130;5.428;2022-10-31T00:30:30;7.25;;;5.32;;
73747;SDS011;62056;52.130;5.428;2022-10-31T00:32:57;8.52;;;4.57;;
73747;SDS011;62056;52.130;5.428;2022-10-31T00:35:25;11.95;;;6.57;;
73747;SDS011;62056;52.130;5.428;2022-10-31T00:37:51;8.17;;;5.67;;
73747;SDS011;62056;52.130;5.428;2022-10-31T00:40:18;5.78;;;4.35;;
73747;SDS011;62056;52.130;5.428;2022-10-31T00:42:45;6.45;;;5.63;;
73747;SDS011;62056;52.130;5.428;2022-10-31T00:45:11;9.32;;;6.10;;
73747;SDS011;62056;52.130;5.428;2022-10-31T00:47:38;12.68;;;6.05;;
73747;SDS011;62056;52.130;5.428;2022-10-31T00:50:05;8.57;;;5.10;;
73747;SDS011;62056;52.130;5.428;2022-10-31T00:52:32;9.63;;;7.43;;
73747;SDS011;62056;52.130;5.428;2022-10-31T00:54:58;11.85;;;6.25;;
73747;SDS011;62056;52.130;5.428;2022-10-31T00:57:25;12.45;;;7.80;;
73747;SDS011;62056;52.130;5.428;2022-10-31T00:59:52;10.63;;;6.63;;
73747;SDS011;62056;52.130;5.428;2022-10-31T01:02:18;7.67;;;6.73;;
73747;SDS011;62056;52.130;5.428;2022-10-31T01:04:46;8.30;;;5.70;;
73747;SDS011;62056;52.130;5.428;2022-10-31T01:07:12;8.60;;;6.53;;
73747;SDS011;62056;52.130;5.428;2022-10-31T01:09:40;10.90;;;6.28;;
73747;SDS011;62056;52.130;5.428;2022-10-31T01:12:07;9.75;;;7.65;;
73747;SDS011;62056;52.130;5.428;2022-10-31T01:14:33;14.13;;;8.07;;
73747;SDS011;62056;52.130;5.428;2022-10-31T01:17:00;16.17;;;7.65;;
73747;SDS011;62056;52.130;5.428;2022-10-31T01:19:26;12.18;;;5.82;;
73747;SDS011;62056;52.130;5.428;2022-10-31T01:21:54;9.35;;;5.68;;
73747;SDS011;62056;52.130;5.428;2022-10-31T01:24:21;10.05;;;7.05;;
73747;SDS011;62056;52.130;5.428;2022-10-31T01:26:47;8.10;;;5.93;;
73747;SDS011;62056;52.130;5.428;2022-10-31T01:29:14;10.50;;;5.88;;
73747;SDS011;62056;52.130;5.428;2022-10-31T01:31:40;9.65;;;5.20;;
73747;SDS011;62056;52.130;5.428;2022-10-31T01:34:07;6.57;;;5.35;;
73747;SDS011;62056;52.130;5.428;2022-10-31T01:36:39;8.80;;;6.47;;
73747;SDS011;62056;52.130;5.428;2022-10-31T01:39:08;5.90;;;5.20;;
73747;SDS011;62056;52.130;5.428;2022-10-31T01:41:37;11.43;;;6.05;;
73747;SDS011;62056;52.130;5.428;2022-10-31T01:46:43;12.30;;;6.43;;
73747;SDS011;62056;52.130;5.428;2022-10-31T01:49:12;10.95;;;6.47;;
73747;SDS011;62056;52.130;5.428;2022-10-31T01:51:45;10.07;;;5.77;;
73747;SDS011;62056;52.130;5.428;2022-10-31T01:54:19;9.15;;;5.38;;
73747;SDS011;62056;52.130;5.428;2022-10-31T01:56:50;7.95;;;7.00;;
73747;SDS011;62056;52.130;5.428;2022-10-31T01:59:20;7.78;;;6.68;;
73747;SDS011;62056;52.130;5.428;2022-10-31T02:01:50;11.20;;;6.35;;
73747;SDS011;62056;52.130;5.428;2022-10-31T02:04:18;6.33;;;5.27;;
73747;SDS011;62056;52.130;5.428;2022-10-31T02:06:52;8.55;;;5.72;;
73747;SDS011;62056;52.130;5.428;2022-10-31T02:09:22;5.93;;;5.13;;
73747;SDS011;62056;52.130;5.428;2022-10-31T02:11:51;7.05;;;5.43;;
73747;SDS011;62056;52.130;5.428;2022-10-31T02:14:20;5.85;;;5.18;;
73747;SDS011;62056;52.130;5.428;2022-10-31T02:16:49;6.20;;;4.63;;
73747;SDS011;62056;52.130;5.428;2022-10-31T02:19:18;5.93;;;5.38;;
73747;SDS011;62056;52.130;5.428;2022-10-31T02:21:58;6.80;;;5.53;;
73747;SDS011;62056;52.130;5.428;2022-10-31T02:27:12;11.98;;;5.55;;
73747;SDS011;62056;52.130;5.428;2022-10-31T02:30:07;5.60;;;5.00;;
73747;SDS011;62056;52.130;5.428;2022-10-31T02:35:46;7.60;;;5.63;;
73747;SDS011;62056;52.130;5.428;2022-10-31T02:41:30;7.28;;;5.65;;
73747;SDS011;62056;52.130;5.428;2022-10-31T02:49:00;11.07;;;5.30;;
73747;SDS011;62056;52.130;5.428;2022-10-31T02:51:33;8.23;;;5.07;;
73747;SDS011;62056;52.130;5.428;2022-10-31T02:54:00;7.90;;;5.75;;
73747;SDS011;62056;52.130;5.428;2022-10-31T02:56:27;8.50;;;5.43;;
73747;SDS011;62056;52.130;5.428;2022-10-31T02:58:55;12.45;;;6.22;;
73747;SDS011;62056;52.130;5.428;2022-10-31T03:01:33;8.63;;;5.43;;
73747;SDS011;62056;52.130;5.428;2022-10-31T03:04:08;6.32;;;4.88;;
73747;SDS011;62056;52.130;5.428;2022-10-31T03:06:46;6.45;;;5.50;;
73747;SDS011;62056;52.130;5.428;2022-10-31T03:12:15;9.80;;;6.28;;
73747;SDS011;62056;52.130;5.428;2022-10-31T03:17:41;5.70;;;4.82;;
73747;SDS011;62056;52.130;5.428;2022-10-31T03:20:17;7.15;;;4.65;;
73747;SDS011;62056;52.130;5.428;2022-10-31T03:22:50;8.60;;;5.00;;
73747;SDS011;62056;52.130;5.428;2022-10-31T03:25:17;12.93;;;4.50;;
73747;SDS011;62056;52.130;5.428;2022-10-31T03:27:44;7.35;;;5.15;;
73747;SDS011;62056;52.130;5.428;2022-10-31T03:30:13;8.07;;;5.70;;
73747;SDS011;62056;52.130;5.428;2022-10-31T03:35:10;6.83;;;4.70;;
73747;SDS011;62056;52.130;5.428;2022-10-31T03:37:41;6.05;;;5.45;;
73747;SDS011;62056;52.130;5.428;2022-10-31T03:40:08;9.20;;;5.82;;
73747;SDS011;62056;52.130;5.428;2022-10-31T03:42:39;7.28;;;5.15;;
73747;SDS011;62056;52.130;5.428;2022-10-31T03:45:14;5.78;;;5.03;;
73747;SDS011;62056;52.130;5.428;2022-10-31T03:47:47;6.27;;;5.00;;
73747;SDS011;62056;52.130;5.428;2022-10-31T03:50:14;10.18;;;5.05;;
73747;SDS011;62056;52.130;5.428;2022-10-31T03:52:43;10.70;;;4.57;;
73747;SDS011;62056;52.130;5.428;2022-10-31T04:00:18;7.40;;;5.70;;
73747;SDS011;62056;52.130;5.428;2022-10-31T04:02:51;9.02;;;5.63;;
73747;SDS011;62056;52.130;5.428;2022-10-31T04:05:25;9.57;;;4.80;;
73747;SDS011;62056;52.130;5.428;2022-10-31T04:07:53;9.73;;;4.85;;
73747;SDS011;62056;52.130;5.428;2022-10-31T04:10:22;7.68;;;5.25;;
73747;SDS011;62056;52.130;5.428;2022-10-31T04:13:01;7.03;;;5.17;;
73747;SDS011;62056;52.130;5.428;2022-10-31T04:15:32;7.97;;;5.75;;
73747;SDS011;62056;52.130;5.428;2022-10-31T04:18:09;8.00;;;5.50;;
73747;SDS011;62056;52.130;5.428;2022-10-31T04:20:39;8.60;;;5.38;;
73747;SDS011;62056;52.130;5.428;2022-10-31T04:23:19;6.30;;;4.68;;
73747;SDS011;62056;52.130;5.428;2022-10-31T04:25:56;6.00;;;4.63;;
73747;SDS011;62056;52.130;5.428;2022-10-31T04:28:23;7.03;;;5.60;;
73747;SDS011;62056;52.130;5.428;2022-10-31T04:31:10;6.80;;;5.10;;
73747;SDS011;62056;52.130;5.428;2022-10-31T04:33:43;7.40;;;5.38;;
73747;SDS011;62056;52.130;5.428;2022-10-31T04:36:11;5.43;;;4.90;;
73747;SDS011;62056;52.130;5.428;2022-10-31T04:38:39;5.97;;;5.37;;
73747;SDS011;62056;52.130;5.428;2022-10-31T04:41:06;5.47;;;4.90;;
73747;SDS011;62056;52.130;5.428;2022-10-31T04:43:34;6.65;;;4.47;;
73747;SDS011;62056;52.130;5.428;2022-10-31T04:46:04;6.03;;;5.15;;
73747;SDS011;62056;52.130;5.428;2022-10-31T04:48:40;9.13;;;5.43;;
73747;SDS011;62056;52.130;5.428;2022-10-31T04:51:07;6.40;;;5.30;;
73747;SDS011;62056;52.130;5.428;2022-10-31T04:53:33;7.88;;;4.88;;
73747;SDS011;62056;52.130;5.428;2022-10-31T04:56:00;5.25;;;4.53;;
73747;SDS011;62056;52.130;5.428;2022-10-31T04:58:28;5.90;;;4.80;;
73747;SDS011;62056;52.130;5.428;2022-10-31T05:00:55;8.23;;;5.90;;
73747;SDS011;62056;52.130;5.428;2022-10-31T05:03:22;5.97;;;5.00;;
73747;SDS011;62056;52.130;5.428;2022-10-31T05:05:49;4.93;;;4.47;;
73747;SDS011;62056;52.130;5.428;2022-10-31T05:08:15;5.78;;;4.82;;
73747;SDS011;62056;52.130;5.428;2022-10-31T05:10:42;8.48;;;4.80;;
73747;SDS011;62056;52.130;5.428;2022-10-31T05:13:10;7.03;;;5.13;;
73747;SDS011;62056;52.130;5.428;2022-10-31T05:15:36;7.47;;;4.97;;
73747;SDS011;62056;52.130;5.428;2022-10-31T05:18:03;5.05;;;4.55;;
73747;SDS011;62056;52.130;5.428;2022-10-31T05:20:30;8.20;;;5.32;;
73747;SDS011;62056;52.130;5.428;2022-10-31T05:22:59;7.63;;;6.18;;
73747;SDS011;62056;52.130;5.428;2022-10-31T05:25:28;10.13;;;5.60;;
73747;SDS011;62056;52.130;5.428;2022-10-31T05:27:55;9.60;;;5.53;;
73747;SDS011;62056;52.130;5.428;2022-10-31T05:30:27;10.48;;;5.38;;
73747;SDS011;62056;52.130;5.428;2022-10-31T05:32:55;9.25;;;5.30;;
73747;SDS011;62056;52.130;5.428;2022-10-31T05:35:24;6.70;;;4.97;;
73747;SDS011;62056;52.130;5.428;2022-10-31T05:37:58;8.23;;;5.32;;
73747;SDS011;62056;52.130;5.428;2022-10-31T05:40:28;13.33;;;6.03;;
73747;SDS011;62056;52.130;5.428;2022-10-31T05:43:03;11.52;;;6.45;;
73747;SDS011;62056;52.130;5.428;2022-10-31T05:45:29;13.10;;;6.65;;
73747;SDS011;62056;52.130;5.428;2022-10-31T05:47:57;20.50;;;7.40;;
73747;SDS011;62056;52.130;5.428;2022-10-31T05:50:27;29.30;;;7.93;;
73747;SDS011;62056;52.130;5.428;2022-10-31T05:53:04;25.20;;;7.43;;
73747;SDS011;62056;52.130;5.428;2022-10-31T05:55:34;20.40;;;8.15;;
73747;SDS011;62056;52.130;5.428;2022-10-31T05:58:15;51.28;;;8.77;;
73747;SDS011;62056;52.130;5.428;2022-10-31T06:00:51;45.85;;;7.35;;
73747;SDS011;62056;52.130;5.428;2022-10-31T06:03:20;38.35;;;6.18;;
73747;SDS011;62056;52.130;5.428;2022-10-31T06:05:58;12.77;;;6.77;;
73747;SDS011;62056;52.130;5.428;2022-10-31T06:08:25;14.27;;;5.65;;
73747;SDS011;62056;52.130;5.428;2022-10-31T06:10:51;23.30;;;5.88;;
73747;SDS011;62056;52.130;5.428;2022-10-31T06:13:22;33.58;;;6.07;;
73747;SDS011;62056;52.130;5.428;2022-10-31T06:15:50;19.27;;;5.80;;
73747;SDS011;62056;52.130;5.428;2022-10-31T06:18:23;33.07;;;6.30;;
73747;SDS011;62056;52.130;5.428;2022-10-31T06:20:52;23.33;;;5.18;;
73747;SDS011;62056;52.130;5.428;2022-10-31T06:23:30;11.18;;;5.65;;
73747;SDS011;62056;52.130;5.428;2022-10-31T06:26:00;16.67;;;4.60;;
73747;SDS011;62056;52.130;5.428;2022-10-31T06:28:35;7.18;;;5.68;;
73747;SDS011;62056;52.130;5.428;2022-10-31T06:31:11;7.73;;;5.57;;
73747;SDS011;62056;52.130;5.428;2022-10-31T06:33:43;9.27;;;5.55;;
73747;SDS011;62056;52.130;5.428;2022-10-31T06:36:18;16.33;;;5.32;;
73747;SDS011;62056;52.130;5.428;2022-10-31T06:38:44;32.47;;;6.10;;
73747;SDS011;62056;52.130;5.428;2022-10-31T06:41:11;36.47;;;6.82;;
73747;SDS011;62056;52.130;5.428;2022-10-31T06:47:26;35.13;;;7.00;;
73747;SDS011;62056;52.130;5.428;2022-10-31T06:49:57;62.10;;;7.80;;
73747;SDS011;62056;52.130;5.428;2022-10-31T06:52:27;36.13;;;7.22;;
73747;SDS011;62056;52.130;5.428;2022-10-31T06:54:53;39.17;;;6.57;;
73747;SDS011;62056;52.130;5.428;2022-10-31T06:57:23;14.87;;;7.00;;
73747;SDS011;62056;52.130;5.428;2022-10-31T07:00:18;34.95;;;6.72;;
73747;SDS011;62056;52.130;5.428;2022-10-31T07:02:58;53.30;;;7.20;;
73747;SDS011;62056;52.130;5.428;2022-10-31T07:05:28;27.55;;;7.22;;
73747;SDS011;62056;52.130;5.428;2022-10-31T07:07:59;42.45;;;7.68;;
73747;SDS011;62056;52.130;5.428;2022-10-31T07:10:37;43.63;;;7.03;;
73747;SDS011;62056;52.130;5.428;2022-10-31T07:13:08;97.97;;;7.85;;
73747;SDS011;62056;52.130;5.428;2022-10-31T07:15:40;79.78;;;7.20;;
73747;SDS011;62056;52.130;5.428;2022-10-31T07:18:08;44.60;;;6.78;;
73747;SDS011;62056;52.130;5.428;2022-10-31T07:20:55;67.45;;;7.63;;
73747;SDS011;62056;52.130;5.428;2022-10-31T07:23:22;72.50;;;8.53;;
73747;SDS011;62056;52.130;5.428;2022-10-31T07:26:04;41.30;;;8.07;;
73747;SDS011;62056;52.130;5.428;2022-10-31T07:28:41;13.27;;;7.30;;
73747;SDS011;62056;52.130;5.428;2022-10-31T07:31:10;107.03;;;9.43;;
73747;SDS011;62056;52.130;5.428;2022-10-31T07:33:57;51.88;;;8.93;;
73747;SDS011;62056;52.130;5.428;2022-10-31T07:36:24;50.83;;;8.10;;
73747;SDS011;62056;52.130;5.428;2022-10-31T07:38:51;34.85;;;8.10;;
73747;SDS011;62056;52.130;5.428;2022-10-31T07:41:24;48.03;;;8.05;;
73747;SDS011;62056;52.130;5.428;2022-10-31T07:43:51;28.45;;;8.13;;
73747;SDS011;62056;52.130;5.428;2022-10-31T07:46:22;30.35;;;9.73;;
73747;SDS011;62056;52.130;5.428;2022-10-31T07:49:07;40.40;;;8.90;;
73747;SDS011;62056;52.130;5.428;2022-10-31T07:51:46;26.90;;;8.25;;
73747;SDS011;62056;52.130;5.428;2022-10-31T07:54:30;66.97;;;9.18;;
73747;SDS011;62056;52.130;5.428;2022-10-31T07:57:00;37.45;;;8.73;;
73747;SDS011;62056;52.130;5.428;2022-10-31T07:59:44;8.57;;;7.78;;
73747;SDS011;62056;52.130;5.428;2022-10-31T08:02:27;27.83;;;8.77;;
73747;SDS011;62056;52.130;5.428;2022-10-31T08:05:16;10.52;;;7.60;;
73747;SDS011;62056;52.130;5.428;2022-10-31T08:07:53;16.38;;;8.80;;
73747;SDS011;62056;52.130;5.428;2022-10-31T08:10:20;20.95;;;9.18;;
73747;SDS011;62056;52.130;5.428;2022-10-31T08:13:03;19.95;;;8.93;;
73747;SDS011;62056;52.130;5.428;2022-10-31T08:15:32;54.27;;;10.10;;
73747;SDS011;62056;52.130;5.428;2022-10-31T08:18:01;18.27;;;7.90;;
73747;SDS011;62056;52.130;5.428;2022-10-31T08:20:29;36.35;;;9.20;;
73747;SDS011;62056;52.130;5.428;2022-10-31T08:23:02;19.15;;;8.77;;
73747;SDS011;62056;52.130;5.428;2022-10-31T08:25:32;9.95;;;8.82;;
73747;SDS011;62056;52.130;5.428;2022-10-31T08:31:07;10.90;;;9.73;;
73747;SDS011;62056;52.130;5.428;2022-10-31T08:34:14;12.68;;;8.20;;
73747;SDS011;62056;52.130;5.428;2022-10-31T08:36:41;13.93;;;8.77;;
73747;SDS011;62056;52.130;5.428;2022-10-31T08:39:38;9.82;;;8.82;;
73747;SDS011;62056;52.130;5.428;2022-10-31T08:42:07;9.87;;;8.87;;
73747;SDS011;62056;52.130;5.428;2022-10-31T08:44:34;12.25;;;9.10;;
73747;SDS011;62056;52.130;5.428;2022-10-31T08:47:03;9.88;;;8.70;;
73747;SDS011;62056;52.130;5.428;2022-10-31T08:49:34;11.75;;;8.70;;
73747;SDS011;62056;52.130;5.428;2022-10-31T08:52:46;11.32;;;9.15;;
73747;SDS011;62056;52.130;5.428;2022-10-31T08:56:17;14.07;;;8.87;;
73747;SDS011;62056;52.130;5.428;2022-10-31T08:58:32;10.02;;;8.90;;
73747;SDS011;62056;52.130;5.428;2022-10-31T09:01:05;9.77;;;8.77;;
73747;SDS011;62056;52.130;5.428;2022-10-31T09:03:32;12.05;;;10.10;;
73747;SDS011;62056;52.130;5.428;2022-10-31T09:06:02;11.20;;;9.55;;
73747;SDS011;62056;52.130;5.428;2022-10-31T09:08:29;11.07;;;9.73;;
73747;SDS011;62056;52.130;5.428;2022-10-31T09:10:59;28.02;;;10.00;;
73747;SDS011;62056;52.130;5.428;2022-10-31T09:13:26;10.38;;;8.77;;
73747;SDS011;62056;52.130;5.428;2022-10-31T09:15:53;11.95;;;9.82;;
73747;SDS011;62056;52.130;5.428;2022-10-31T09:18:21;12.93;;;10.48;;
73747;SDS011;62056;52.130;5.428;2022-10-31T09:21:09;11.30;;;10.20;;
73747;SDS011;62056;52.130;5.428;2022-10-31T09:23:50;11.18;;;9.93;;
73747;SDS011;62056;52.130;5.428;2022-10-31T09:26:26;14.48;;;10.07;;
73747;SDS011;62056;52.130;5.428;2022-10-31T09:29:05;12.80;;;10.35;;
73747;SDS011;62056;52.130;5.428;2022-10-31T09:34:58;13.07;;;10.03;;
73747;SDS011;62056;52.130;5.428;2022-10-31T09:37:28;14.38;;;9.75;;
73747;SDS011;62056;52.130;5.428;2022-10-31T09:39:55;14.15;;;10.05;;
73747;SDS011;62056;52.130;5.428;2022-10-31T09:45:36;21.25;;;11.02;;
73747;SDS011;62056;52.130;5.428;2022-10-31T09:51:05;16.73;;;11.23;;
73747;SDS011;62056;52.130;5.428;2022-10-31T09:56:39;14.10;;;10.05;;
73747;SDS011;62056;52.130;5.428;2022-10-31T09:59:39;13.43;;;10.27;;
73747;SDS011;62056;52.130;5.428;2022-10-31T10:06:01;13.77;;;10.65;;
73747;SDS011;62056;52.130;5.428;2022-10-31T10:09:11;18.52;;;9.82;;
73747;SDS011;62056;52.130;5.428;2022-10-31T10:20:28;13.60;;;9.65;;
73747;SDS011;62056;52.130;5.428;2022-10-31T10:26:00;14.93;;;9.40;;
73747;SDS011;62056;52.130;5.428;2022-10-31T10:29:27;15.25;;;10.48;;
73747;SDS011;62056;52.130;5.428;2022-10-31T10:32:38;11.30;;;10.15;;
73747;SDS011;62056;52.130;5.428;2022-10-31T10:35:20;13.90;;;9.23;;
73747;SDS011;62056;52.130;5.428;2022-10-31T10:37:49;16.33;;;9.80;;
73747;SDS011;62056;52.130;5.428;2022-10-31T10:40:23;19.13;;;10.60;;
73747;SDS011;62056;52.130;5.428;2022-10-31T10:43:51;11.32;;;8.57;;
73747;SDS011;62056;52.130;5.428;2022-10-31T10:46:43;17.30;;;9.10;;
73747;SDS011;62056;52.130;5.428;2022-10-31T10:49:50;10.93;;;8.27;;
73747;SDS011;62056;52.130;5.428;2022-10-31T10:52:39;11.57;;;8.05;;
73747;SDS011;62056;52.130;5.428;2022-10-31T10:55:33;10.85;;;7.93;;
73747;SDS011;62056;52.130;5.428;2022-10-31T10:58:11;12.55;;;8.02;;
73747;SDS011;62056;52.130;5.428;2022-10-31T11:00:42;12.70;;;7.60;;
73747;SDS011;62056;52.130;5.428;2022-10-31T11:03:17;12.07;;;6.90;;
73747;SDS011;62056;52.130;5.428;2022-10-31T11:06:01;12.43;;;8.23;;
73747;SDS011;62056;52.130;5.428;2022-10-31T11:08:32;13.95;;;7.90;;
73747;SDS011;62056;52.130;5.428;2022-10-31T11:11:19;15.13;;;8.32;;
73747;SDS011;62056;52.130;5.428;2022-10-31T11:14:02;11.23;;;7.60;;
73747;SDS011;62056;52.130;5.428;2022-10-31T11:16:38;15.85;;;8.45;;
73747;SDS011;62056;52.130;5.428;2022-10-31T11:22:45;15.05;;;7.70;;
73747;SDS011;62056;52.130;5.428;2022-10-31T11:25:24;12.13;;;7.53;;
73747;SDS011;62056;52.130;5.428;2022-10-31T11:28:12;13.23;;;8.23;;
73747;SDS011;62056;52.130;5.428;2022-10-31T11:30:43;15.52;;;8.57;;
73747;SDS011;62056;52.130;5.428;2022-10-31T11:33:23;14.35;;;8.07;;
73747;SDS011;62056;52.130;5.428;2022-10-31T11:36:16;12.48;;;7.88;;
73747;SDS011;62056;52.130;5.428;2022-10-31T11:38:54;13.60;;;8.77;;
73747;SDS011;62056;52.130;5.428;2022-10-31T11:44:02;13.13;;;8.57;;
73747;SDS011;62056;52.130;5.428;2022-10-31T11:46:35;21.45;;;9.57;;
73747;SDS011;62056;52.130;5.428;2022-10-31T11:49:14;13.40;;;8.68;;
73747;SDS011;62056;52.130;5.428;2022-10-31T11:51:49;16.98;;;9.40;;
73747;SDS011;62056;52.130;5.428;2022-10-31T11:54:21;17.45;;;9.38;;
73747;SDS011;62056;52.130;5.428;2022-10-31T11:56:51;13.75;;;9.10;;
73747;SDS011;62056;52.130;5.428;2022-10-31T11:59:26;14.80;;;9.70;;
73747;SDS011;62056;52.130;5.428;2022-10-31T12:01:59;17.73;;;10.00;;
73747;SDS011;62056;52.130;5.428;2022-10-31T12:04:43;19.83;;;10.90;;
73747;SDS011;62056;52.130;5.428;2022-10-31T12:07:25;18.17;;;11.02;;
73747;SDS011;62056;52.130;5.428;2022-10-31T12:09:53;18.15;;;11.13;;
73747;SDS011;62056;52.130;5.428;2022-10-31T12:12:23;22.58;;;12.07;;
73747;SDS011;62056;52.130;5.428;2022-10-31T12:15:22;22.45;;;11.30;;
73747;SDS011;62056;52.130;5.428;2022-10-31T12:20:44;24.92;;;11.73;;
73747;SDS011;62056;52.130;5.428;2022-10-31T12:26:34;23.05;;;12.15;;
73747;SDS011;62056;52.130;5.428;2022-10-31T12:29:22;21.77;;;12.68;;
73747;SDS011;62056;52.130;5.428;2022-10-31T12:31:56;18.13;;;12.43;;
73747;SDS011;62056;52.130;5.428;2022-10-31T12:45:50;22.88;;;11.52;;
73747;SDS011;62056;52.130;5.428;2022-10-31T12:48:38;18.27;;;12.18;;
73747;SDS011;62056;52.130;5.428;2022-10-31T13:00:10;19.67;;;11.20;;
73747;SDS011;62056;52.130;5.428;2022-10-31T13:05:26;22.40;;;11.65;;
73747;SDS011;62056;52.130;5.428;2022-10-31T13:07:58;26.95;;;12.30;;
73747;SDS011;62056;52.130;5.428;2022-10-31T13:24:28;25.63;;;12.70;;
73747;SDS011;62056;52.130;5.428;2022-10-31T13:27:03;23.48;;;11.98;;
73747;SDS011;62056;52.130;5.428;2022-10-31T13:29:42;28.83;;;12.57;;
73747;SDS011;62056;52.130;5.428;2022-10-31T13:32:48;21.17;;;12.50;;
73747;SDS011;62056;52.130;5.428;2022-10-31T13:35:19;23.60;;;12.85;;
73747;SDS011;62056;52.130;5.428;2022-10-31T13:37:56;19.73;;;12.73;;
73747;SDS011;62056;52.130;5.428;2022-10-31T13:48:59;27.65;;;14.38;;
73747;SDS011;62056;52.130;5.428;2022-10-31T13:51:31;32.10;;;13.55;;
73747;SDS011;62056;52.130;5.428;2022-10-31T13:54:20;29.40;;;13.48;;
73747;SDS011;62056;52.130;5.428;2022-10-31T13:56:56;27.27;;;13.77;;
73747;SDS011;62056;52.130;5.428;2022-10-31T13:59:29;18.83;;;13.30;;
73747;SDS011;62056;52.130;5.428;2022-10-31T14:02:16;23.55;;;13.45;;
73747;SDS011;62056;52.130;5.428;2022-10-31T14:04:55;26.70;;;12.98;;
73747;SDS011;62056;52.130;5.428;2022-10-31T14:07:27;23.65;;;13.30;;
73747;SDS011;62056;52.130;5.428;2022-10-31T14:16:23;22.92;;;13.20;;
73747;SDS011;62056;52.130;5.428;2022-10-31T14:19:07;25.23;;;13.65;;
73747;SDS011;62056;52.130;5.428;2022-10-31T14:21:45;28.13;;;13.02;;
73747;SDS011;62056;52.130;5.428;2022-10-31T14:30:13;26.20;;;12.68;;
73747;SDS011;62056;52.130;5.428;2022-10-31T14:37:05;24.08;;;13.52;;
73747;SDS011;62056;52.130;5.428;2022-10-31T14:39:39;26.20;;;12.88;;
73747;SDS011;62056;52.130;5.428;2022-10-31T14:42:36;26.70;;;12.45;;
73747;SDS011;62056;52.130;5.428;2022-10-31T14:51:36;29.67;;;12.73;;
73747;SDS011;62056;52.130;5.428;2022-10-31T14:54:06;28.77;;;13.10;;
73747;SDS011;62056;52.130;5.428;2022-10-31T14:56:46;22.60;;;13.50;;
73747;SDS011;62056;52.130;5.428;2022-10-31T14:59:23;25.50;;;13.50;;
73747;SDS011;62056;52.130;5.428;2022-10-31T15:01:55;27.15;;;13.13;;
73747;SDS011;62056;52.130;5.428;2022-10-31T15:04:29;28.42;;;14.05;;
73747;SDS011;62056;52.130;5.428;2022-10-31T15:09:59;29.33;;;12.75;;
73747;SDS011;62056;52.130;5.428;2022-10-31T15:12:36;25.45;;;14.15;;
73747;SDS011;62056;52.130;5.428;2022-10-31T15:15:17;28.58;;;12.95;;
73747;SDS011;62056;52.130;5.428;2022-10-31T15:18:18;28.35;;;14.13;;
73747;SDS011;62056;52.130;5.428;2022-10-31T15:20:59;21.67;;;13.57;;
73747;SDS011;62056;52.130;5.428;2022-10-31T15:23:31;22.58;;;13.60;;
73747;SDS011;62056;52.130;5.428;2022-10-31T15:26:37;26.15;;;13.98;;
73747;SDS011;62056;52.130;5.428;2022-10-31T15:32:29;24.30;;;12.52;;
73747;SDS011;62056;52.130;5.428;2022-10-31T15:34:56;25.95;;;14.15;;
73747;SDS011;62056;52.130;5.428;2022-10-31T15:37:32;27.15;;;13.65;;
73747;SDS011;62056;52.130;5.428;2022-10-31T15:40:12;25.77;;;13.80;;
73747;SDS011;62056;52.130;5.428;2022-10-31T15:42:52;28.67;;;13.70;;
73747;SDS011;62056;52.130;5.428;2022-10-31T15:45:23;25.95;;;13.45;;
73747;SDS011;62056;52.130;5.428;2022-10-31T15:48:02;28.27;;;14.57;;
73747;SDS011;62056;52.130;5.428;2022-10-31T15:50:50;26.00;;;13.45;;
73747;SDS011;62056;52.130;5.428;2022-10-31T15:53:26;27.92;;;14.02;;
73747;SDS011;62056;52.130;5.428;2022-10-31T15:56:07;24.38;;;13.25;;
73747;SDS011;62056;52.130;5.428;2022-10-31T15:58:44;27.30;;;13.40;;
73747;SDS011;62056;52.130;5.428;2022-10-31T16:01:26;30.15;;;12.88;;
73747;SDS011;62056;52.130;5.428;2022-10-31T16:04:23;23.63;;;12.48;;
73747;SDS011;62056;52.130;5.428;2022-10-31T16:07:01;26.65;;;13.98;;
73747;SDS011;62056;52.130;5.428;2022-10-31T16:09:30;25.77;;;12.23;;
73747;SDS011;62056;52.130;5.428;2022-10-31T16:12:01;21.45;;;12.30;;
73747;SDS011;62056;52.130;5.428;2022-10-31T16:14:55;21.85;;;12.23;;
73747;SDS011;62056;52.130;5.428;2022-10-31T16:17:23;22.08;;;11.98;;
73747;SDS011;62056;52.130;5.428;2022-10-31T16:20:00;21.48;;;11.57;;
73747;SDS011;62056;52.130;5.428;2022-10-31T16:22:36;22.30;;;11.50;;
73747;SDS011;62056;52.130;5.428;2022-10-31T16:27:36;23.27;;;11.55;;
73747;SDS011;62056;52.130;5.428;2022-10-31T16:33:00;19.13;;;11.10;;
73747;SDS011;62056;52.130;5.428;2022-10-31T16:35:33;23.17;;;12.10;;
73747;SDS011;62056;52.130;5.428;2022-10-31T16:38:02;26.67;;;11.60;;
73747;SDS011;62056;52.130;5.428;2022-10-31T16:40:35;26.95;;;12.10;;
73747;SDS011;62056;52.130;5.428;2022-10-31T16:43:12;20.67;;;10.85;;
73747;SDS011;62056;52.130;5.428;2022-10-31T16:45:44;24.52;;;11.43;;
73747;SDS011;62056;52.130;5.428;2022-10-31T16:48:15;23.23;;;11.43;;
73747;SDS011;62056;52.130;5.428;2022-10-31T16:50:43;24.23;;;11.30;;
73747;SDS011;62056;52.130;5.428;2022-10-31T16:53:10;19.98;;;11.95;;
73747;SDS011;62056;52.130;5.428;2022-10-31T16:55:43;23.77;;;13.20;;
73747;SDS011;62056;52.130;5.428;2022-10-31T16:58:17;25.70;;;12.30;;
73747;SDS011;62056;52.130;5.428;2022-10-31T17:00:47;27.60;;;11.60;;
73747;SDS011;62056;52.130;5.428;2022-10-31T17:03:14;22.17;;;12.45;;
73747;SDS011;62056;52.130;5.428;2022-10-31T17:05:40;27.55;;;12.68;;
73747;SDS011;62056;52.130;5.428;2022-10-31T17:08:07;21.48;;;12.18;;
73747;SDS011;62056;52.130;5.428;2022-10-31T17:10:34;27.52;;;12.95;;
73747;SDS011;62056;52.130;5.428;2022-10-31T17:13:02;29.73;;;12.23;;
73747;SDS011;62056;52.130;5.428;2022-10-31T17:15:35;24.45;;;11.75;;
73747;SDS011;62056;52.130;5.428;2022-10-31T17:18:13;29.25;;;12.85;;
73747;SDS011;62056;52.130;5.428;2022-10-31T17:20:41;25.58;;;12.15;;
73747;SDS011;62056;52.130;5.428;2022-10-31T17:23:10;27.85;;;12.70;;
73747;SDS011;62056;52.130;5.428;2022-10-31T17:25:40;26.88;;;13.73;;
73747;SDS011;62056;52.130;5.428;2022-10-31T17:28:11;19.48;;;12.68;;
73747;SDS011;62056;52.130;5.428;2022-10-31T17:30:40;23.15;;;12.52;;
73747;SDS011;62056;52.130;5.428;2022-10-31T17:33:14;26.73;;;12.75;;
73747;SDS011;62056;52.130;5.428;2022-10-31T17:35:42;26.10;;;13.18;;
73747;SDS011;62056;52.130;5.428;2022-10-31T17:38:10;27.05;;;14.25;;
73747;SDS011;62056;52.130;5.428;2022-10-31T17:40:38;25.67;;;12.95;;
73747;SDS011;62056;52.130;5.428;2022-10-31T17:43:07;24.77;;;12.82;;
73747;SDS011;62056;52.130;5.428;2022-10-31T17:45:36;21.05;;;12.02;;
73747;SDS011;62056;52.130;5.428;2022-10-31T17:48:04;23.75;;;12.93;;
73747;SDS011;62056;52.130;5.428;2022-10-31T17:50:31;28.30;;;12.85;;